Wetterdaten: Woche 09.05.16 - 15.05.16 (KW19)
Datum Zeit Temp. Aussen Temp. o. S. +5cm Feuchte Auss BlattFeu 1 Luftdruck Regen Sonnenschein Regendauer Solar Windben Empfang
09.05.2016 00:00 18,4 C 17,8 C 16,0 C 61 % 0 lf 1011,5 hPa 0,0 l/m 0,00 h 0,00 h 0 W/m 16,0 km/h (3 Bft) 96,39 %
09.05.2016 01:00 17,4 C 16,8 C 14,9 C 64 % 0 lf 1011,6 hPa 0,0 l/m 0,00 h 0,00 h 0 W/m 14,3 km/h (3 Bft) 93,45 %
09.05.2016 02:00 16,3 C 14,8 C 13,0 C 66 % 0 lf 1011,6 hPa 0,0 l/m 0,00 h 0,00 h 0 W/m 6,1 km/h (2 Bft) 97,86 %
09.05.2016 03:00 14,7 C 12,7 C 11,3 C 69 % 0 lf 1011,8 hPa 0,0 l/m 0,00 h 0,00 h 0 W/m 3,4 km/h (1 Bft) 96,09 %
09.05.2016 04:00 13,2 C 12,2 C 10,5 C 74 % 0 lf 1011,9 hPa 0,0 l/m 0,00 h 0,00 h 0 W/m 4,5 km/h (1 Bft) 96,83 %
09.05.2016 05:00 12,4 C 11,1 C 9,8 C 77 % 0 lf 1011,9 hPa 0,0 l/m 0,00 h 0,00 h 6 W/m 3,8 km/h (1 Bft) 94,66 %
09.05.2016 06:00 11,7 C 11,7 C 9,8 C 80 % 0 lf 1012,1 hPa 0,0 l/m 0,67 h 0,00 h 48 W/m 4,0 km/h (1 Bft) 96,94 %
09.05.2016 07:00 12,6 C 14,7 C 12,2 C 81 % 0 lf 1012,2 hPa 0,0 l/m 1,00 h 0,00 h 204 W/m 9,9 km/h (2 Bft) 96,23 %
09.05.2016 08:00 16,0 C 19,3 C 15,5 C 71 % 0 lf 1012,3 hPa 0,0 l/m 1,00 h 0,00 h 380 W/m 18,0 km/h (3 Bft) 97,08 %
09.05.2016 09:00 20,2 C 26,3 C 19,8 C 57 % 0 lf 1012,3 hPa 0,0 l/m 1,00 h 0,00 h 553 W/m 26,4 km/h (4 Bft) 94,45 %
09.05.2016 10:00 22,5 C 27,6 C 27,6 C 51 % 0 lf 1012,1 hPa 0,0 l/m 1,00 h 0,00 h 700 W/m 27,7 km/h (4 Bft) 97,22 %
09.05.2016 11:00 23,5 C 29,5 C 28,3 C 47 % 0 lf 1011,8 hPa 0,0 l/m 1,00 h 0,00 h 804 W/m 30,0 km/h (5 Bft) 97,36 %
09.05.2016 12:00 24,7 C 30,9 C 29,2 C 44 % 0 lf 1011,5 hPa 0,0 l/m 0,97 h 0,00 h 859 W/m 28,6 km/h (4 Bft) 94,24 %
09.05.2016 13:00 25,5 C 31,0 C 25,6 C 42 % 0 lf 1011,3 hPa 0,0 l/m 1,00 h 0,00 h 843 W/m 26,9 km/h (4 Bft) 96,08 %
09.05.2016 14:00 26,4 C 31,3 C 25,7 C 40 % 0 lf 1011,2 hPa 0,0 l/m 1,00 h 0,00 h 821 W/m 24,3 km/h (4 Bft) 99,08 %
09.05.2016 15:00 26,7 C 31,0 C 25,8 C 38 % 0 lf 1010,9 hPa 0,0 l/m 1,00 h 0,00 h 756 W/m 26,1 km/h (4 Bft) 93,24 %
09.05.2016 16:00 26,6 C 29,7 C 26,5 C 40 % 0 lf 1010,5 hPa 0,0 l/m 1,00 h 0,00 h 521 W/m 24,4 km/h (4 Bft) 97,15 %
09.05.2016 17:00 26,3 C 27,8 C 25,5 C 40 % 0 lf 1010,1 hPa 0,0 l/m 1,00 h 0,00 h 387 W/m 24,9 km/h (4 Bft) 97,36 %
09.05.2016 18:00 25,9 C 26,6 C 24,5 C 41 % 0 lf 1009,8 hPa 0,0 l/m 0,40 h 0,00 h 214 W/m 21,7 km/h (4 Bft) 95,37 %
09.05.2016 19:00 24,8 C 25,2 C 22,9 C 44 % 0 lf 1009,9 hPa 0,0 l/m 0,40 h 0,00 h 123 W/m 17,7 km/h (3 Bft) 94,66 %
09.05.2016 20:00 23,9 C 23,2 C 20,8 C 47 % 0 lf 1010,2 hPa 0,0 l/m 0,03 h 0,00 h 31 W/m 9,8 km/h (2 Bft) 97,30 %
09.05.2016 21:00 22,9 C 22,3 C 19,8 C 48 % 0 lf 1010,5 hPa 0,0 l/m 0,00 h 0,00 h 5 W/m 10,1 km/h (2 Bft) 97,58 %
09.05.2016 22:00 21,9 C 21,5 C 19,2 C 52 % 0 lf 1010,8 hPa 0,0 l/m 0,00 h 0,00 h 0 W/m 14,3 km/h (3 Bft) 95,44 %
09.05.2016 23:00 21,2 C 20,3 C 18,0 C 57 % 0 lf 1010,8 hPa 0,0 l/m 0,00 h 0,00 h 0 W/m 10,6 km/h (2 Bft) 95,30 %
10.05.2016 00:00 20,1 C 19,5 C 17,5 C 61 % 0 lf 1010,7 hPa 0,0 l/m 0,00 h 0,00 h 0 W/m 12,1 km/h (2 Bft) 95,34 %
10.05.2016 01:00 19,5 C 18,5 C 16,8 C 63 % 0 lf 1010,5 hPa 0,0 l/m 0,00 h 0,00 h 0 W/m 3,1 km/h (1 Bft) 95,15 %
10.05.2016 02:00 18,4 C 17,2 C 15,9 C 68 % 0 lf 1010,1 hPa 0,0 l/m 0,00 h 0,00 h 0 W/m 2,2 km/h (1 Bft) 96,03 %
10.05.2016 03:00 17,7 C 17,1 C 15,6 C 71 % 0 lf 1009,7 hPa 0,0 l/m 0,00 h 0,00 h 0 W/m 3,1 km/h (1 Bft) 97,69 %
10.05.2016 04:00 17,1 C 16,5 C 14,7 C 73 % 0 lf 1009,4 hPa 0,0 l/m 0,00 h 0,00 h 0 W/m 6,8 km/h (2 Bft) 96,61 %
10.05.2016 05:00 16,7 C 16,3 C 14,7 C 73 % 0 lf 1009,0 hPa 0,0 l/m 0,00 h 0,00 h 5 W/m 3,5 km/h (1 Bft) 94,27 %
10.05.2016 06:00 16,4 C 16,5 C 14,8 C 74 % 0 lf 1008,8 hPa 0,0 l/m 0,00 h 0,00 h 21 W/m 5,7 km/h (1 Bft) 97,57 %
10.05.2016 07:00 16,9 C 18,4 C 16,2 C 70 % 0 lf 1008,8 hPa 0,0 l/m 0,70 h 0,00 h 148 W/m 10,5 km/h (2 Bft) 95,09 %
10.05.2016 08:00 18,9 C 20,8 C 18,0 C 64 % 0 lf 1008,8 hPa 0,0 l/m 1,00 h 0,00 h 321 W/m 21,0 km/h (4 Bft) 97,15 %
10.05.2016 09:00 19,6 C 21,5 C 19,7 C 63 % 0 lf 1008,9 hPa 0,0 l/m 1,00 h 0,00 h 301 W/m 18,5 km/h (3 Bft) 96,15 %
10.05.2016 10:00 20,2 C 22,3 C 20,8 C 63 % 0 lf 1009,0 hPa 0,0 l/m 0,63 h 0,00 h 357 W/m 19,2 km/h (3 Bft) 94,88 %
10.05.2016 11:00 21,1 C 23,9 C 22,5 C 61 % 0 lf 1009,1 hPa 0,0 l/m 0,97 h 0,00 h 434 W/m 18,1 km/h (3 Bft) 97,82 %
10.05.2016 12:00 21,3 C 23,2 C 22,0 C 63 % 0 lf 1008,9 hPa 0,0 l/m 0,00 h 0,00 h 321 W/m 11,5 km/h (2 Bft) 95,75 %
10.05.2016 13:00 21,3 C 22,6 C 21,3 C 65 % 0 lf 1008,7 hPa 0,0 l/m 0,00 h 0,00 h 241 W/m 12,7 km/h (3 Bft) 95,60 %
10.05.2016 14:00 22,0 C 23,9 C 22,7 C 65 % 0 lf 1008,6 hPa 0,0 l/m 0,10 h 0,00 h 342 W/m 15,2 km/h (3 Bft) 96,81 %
10.05.2016 15:00 21,1 C 22,2 C 21,0 C 69 % 0 lf 1008,3 hPa 0,0 l/m 0,00 h 0,00 h 251 W/m 20,3 km/h (4 Bft) 95,73 %
10.05.2016 16:00 20,9 C 21,8 C 20,6 C 67 % 0 lf 1008,0 hPa 0,0 l/m 0,00 h 0,03 h 229 W/m 19,0 km/h (3 Bft) 96,37 %
10.05.2016 17:00 21,0 C 21,7 C 20,3 C 62 % 0 lf 1007,6 hPa 0,0 l/m 0,00 h 0,00 h 187 W/m 21,0 km/h (4 Bft) 97,22 %
10.05.2016 18:00 20,6 C 20,5 C 18,7 C 63 % 1 lf 1007,0 hPa 0,0 l/m 0,00 h 0,63 h 95 W/m 14,9 km/h (3 Bft) 95,01 %
10.05.2016 19:00 20,0 C 20,0 C 18,3 C 67 % 0 lf 1006,8 hPa 0,0 l/m 0,00 h 0,13 h 55 W/m 9,7 km/h (2 Bft) 97,23 %
10.05.2016 20:00 19,6 C 19,4 C 17,8 C 68 % 0 lf 1006,7 hPa 0,0 l/m 0,00 h 0,00 h 20 W/m 10,1 km/h (2 Bft) 95,02 %
10.05.2016 21:00 18,9 C 18,4 C 16,8 C 72 % 0 lf 1006,9 hPa 0,0 l/m 0,00 h 0,03 h 4 W/m 6,7 km/h (2 Bft) 97,51 %
10.05.2016 22:00 18,3 C 17,4 C 15,8 C 76 % 3 lf 1007,1 hPa 0,0 l/m 0,00 h 0,50 h 0 W/m 8,6 km/h (2 Bft) 95,73 %
10.05.2016 23:00 17,7 C 17,2 C 15,3 C 80 % 0 lf 1006,9 hPa 0,0 l/m 0,00 h 0,17 h 0 W/m 7,6 km/h (2 Bft) 94,16 %
11.05.2016 00:00 17,2 C 16,9 C 15,5 C 81 % 0 lf 1006,6 hPa 0,0 l/m 0,00 h 0,07 h 0 W/m 11,0 km/h (2 Bft) 97,10 %
11.05.2016 01:00 16,9 C 16,2 C 14,7 C 82 % 0 lf 1006,3 hPa 0,0 l/m 0,00 h 0,00 h 0 W/m 6,3 km/h (2 Bft) 97,91 %
11.05.2016 02:00 16,0 C 15,2 C 13,7 C 84 % 0 lf 1006,2 hPa 0,0 l/m 0,00 h 0,00 h 0 W/m 9,9 km/h (2 Bft) 92,92 %
11.05.2016 03:00 15,2 C 14,8 C 13,3 C 87 % 0 lf 1006,1 hPa 0,0 l/m 0,00 h 0,00 h 0 W/m 8,6 km/h (2 Bft) 98,35 %
11.05.2016 04:00 14,7 C 14,1 C 12,8 C 89 % 0 lf 1006,0 hPa 0,0 l/m 0,00 h 0,00 h 0 W/m 8,5 km/h (2 Bft) 97,74 %
11.05.2016 05:00 14,2 C 13,8 C 12,3 C 90 % 1 lf 1005,7 hPa 0,0 l/m 0,00 h 0,00 h 5 W/m 8,2 km/h (2 Bft) 94,94 %
11.05.2016 06:00 13,7 C 13,4 C 11,9 C 91 % 1 lf 1005,5 hPa 0,0 l/m 0,27 h 0,00 h 36 W/m 5,9 km/h (2 Bft) 96,16 %
11.05.2016 07:00 13,9 C 14,9 C 13,0 C 92 % 0 lf 1005,6 hPa 0,0 l/m 1,00 h 0,00 h 197 W/m 8,4 km/h (2 Bft) 97,01 %
11.05.2016 08:00 15,6 C 18,7 C 15,0 C 89 % 0 lf 1005,5 hPa 0,0 l/m 1,00 h 0,00 h 369 W/m 16,2 km/h (3 Bft) 95,30 %
11.05.2016 09:00 18,9 C 25,3 C 18,6 C 78 % 0 lf 1005,4 hPa 0,0 l/m 1,00 h 0,00 h 536 W/m 16,2 km/h (3 Bft) 97,02 %
11.05.2016 10:00 21,5 C 27,8 C 26,4 C 69 % 0 lf 1005,3 hPa 0,0 l/m 1,00 h 0,00 h 619 W/m 15,9 km/h (3 Bft) 95,14 %
11.05.2016 11:00 24,4 C 31,9 C 28,9 C 60 % 0 lf 1004,7 hPa 0,0 l/m 1,00 h 0,00 h 779 W/m 15,5 km/h (3 Bft) 95,54 %
11.05.2016 12:00 26,0 C 31,8 C 29,9 C 53 % 0 lf 1004,1 hPa 0,0 l/m 0,90 h 0,00 h 805 W/m 16,7 km/h (3 Bft) 97,36 %
11.05.2016 13:00 26,3 C 30,4 C 25,7 C 50 % 0 lf 1003,5 hPa 0,0 l/m 0,50 h 0,00 h 539 W/m 15,6 km/h (3 Bft) 94,95 %
11.05.2016 14:00 26,6 C 30,6 C 25,7 C 48 % 0 lf 1002,9 hPa 0,0 l/m 0,47 h 0,00 h 532 W/m 16,0 km/h (3 Bft) 95,23 %
11.05.2016 15:00 26,3 C 28,8 C 25,2 C 48 % 0 lf 1002,4 hPa 0,0 l/m 0,30 h 0,00 h 399 W/m 16,4 km/h (3 Bft) 98,08 %
11.05.2016 16:00 26,2 C 29,3 C 26,3 C 49 % 0 lf 1001,8 hPa 0,0 l/m 0,53 h 0,00 h 431 W/m 19,1 km/h (3 Bft) 94,16 %
11.05.2016 17:00 25,9 C 28,0 C 24,7 C 49 % 0 lf 1001,2 hPa 0,0 l/m 0,57 h 0,00 h 352 W/m 23,2 km/h (4 Bft) 97,44 %
11.05.2016 18:00 25,4 C 26,0 C 24,0 C 51 % 0 lf 1000,7 hPa 0,0 l/m 0,23 h 0,03 h 160 W/m 24,0 km/h (4 Bft) 95,66 %
11.05.2016 19:00 24,0 C 22,4 C 19,4 C 59 % 0 lf 1000,6 hPa 0,0 l/m 0,00 h 0,17 h 50 W/m 12,1 km/h (2 Bft) 96,87 %
11.05.2016 20:00 22,3 C 20,6 C 18,5 C 61 % 1 lf 1000,8 hPa 0,4 l/m 0,00 h 0,53 h 17 W/m 25,8 km/h (4 Bft) 95,16 %
11.05.2016 21:00 19,3 C 16,1 C 14,9 C 76 % 7 lf 1000,7 hPa 0,2 l/m 0,00 h 0,13 h 0 W/m 9,5 km/h (2 Bft) 96,22 %
11.05.2016 22:00 18,5 C 16,7 C 14,5 C 77 % 0 lf 1000,8 hPa 0,0 l/m 0,00 h 0,00 h 0 W/m 12,0 km/h (2 Bft) 97,01 %
11.05.2016 23:00 17,9 C 17,5 C 13,7 C 72 % 0 lf 1000,9 hPa 0,0 l/m 0,00 h 0,00 h 0 W/m 12,8 km/h (3 Bft) 95,67 %
12.05.2016 00:00 17,5 C 17,2 C 15,2 C 71 % 0 lf 1000,8 hPa 0,0 l/m 0,00 h 0,00 h 0 W/m 13,1 km/h (3 Bft) 94,54 %
12.05.2016 01:00 16,6 C 15,8 C 13,9 C 73 % 0 lf 1000,6 hPa 0,0 l/m 0,00 h 0,00 h 0 W/m 13,2 km/h (3 Bft) 98,65 %
12.05.2016 02:00 15,8 C 15,5 C 13,8 C 75 % 0 lf 1000,2 hPa 0,0 l/m 0,00 h 0,00 h 0 W/m 14,5 km/h (3 Bft) 95,87 %
12.05.2016 03:00 15,2 C 14,8 C 13,1 C 76 % 0 lf 1000,0 hPa 0,0 l/m 0,00 h 0,00 h 0 W/m 14,4 km/h (3 Bft) 94,30 %
12.05.2016 04:00 14,8 C 14,3 C 12,8 C 77 % 0 lf 999,8 hPa 0,0 l/m 0,00 h 0,00 h 0 W/m 14,9 km/h (3 Bft) 97,38 %
12.05.2016 05:00 14,3 C 14,0 C 12,7 C 79 % 0 lf 999,6 hPa 0,0 l/m 0,00 h 0,00 h 9 W/m 16,4 km/h (3 Bft) 96,37 %
12.05.2016 06:00 14,2 C 14,3 C 12,6 C 80 % 0 lf 999,4 hPa 0,0 l/m 0,97 h 0,00 h 60 W/m 15,6 km/h (3 Bft) 96,42 %
12.05.2016 07:00 14,9 C 15,9 C 13,8 C 78 % 0 lf 999,4 hPa 0,0 l/m 1,00 h 0,00 h 211 W/m 18,7 km/h (3 Bft) 96,32 %
12.05.2016 08:00 16,6 C 19,9 C 15,5 C 73 % 0 lf 999,3 hPa 0,0 l/m 1,00 h 0,00 h 387 W/m 21,6 km/h (4 Bft) 95,14 %
12.05.2016 09:00 19,4 C 26,1 C 19,0 C 65 % 0 lf 999,1 hPa 0,0 l/m 1,00 h 0,00 h 544 W/m 25,2 km/h (4 Bft) 97,52 %
12.05.2016 10:00 21,9 C 29,1 C 26,7 C 58 % 0 lf 999,0 hPa 0,0 l/m 1,00 h 0,00 h 680 W/m 22,9 km/h (4 Bft) 96,33 %
12.05.2016 11:00 22,8 C 30,5 C 27,7 C 56 % 0 lf 998,7 hPa 0,0 l/m 1,00 h 0,00 h 790 W/m 24,1 km/h (4 Bft) 94,38 %
12.05.2016 12:00 24,1 C 32,5 C 29,0 C 53 % 0 lf 998,5 hPa 0,0 l/m 0,97 h 0,00 h 817 W/m 23,4 km/h (4 Bft) 96,74 %
12.05.2016 13:00 25,1 C 32,9 C 25,7 C 50 % 0 lf 998,0 hPa 0,0 l/m 0,97 h 0,00 h 870 W/m 19,9 km/h (4 Bft) 98,21 %
12.05.2016 14:00 26,2 C 30,0 C 25,7 C 43 % 0 lf 997,4 hPa 0,0 l/m 0,43 h 0,00 h 530 W/m 25,5 km/h (4 Bft) 93,95 %
12.05.2016 15:00 26,3 C 29,4 C 25,1 C 44 % 0 lf 997,2 hPa 0,0 l/m 0,37 h 0,00 h 452 W/m 27,6 km/h (4 Bft) 97,39 %
12.05.2016 16:00 25,6 C 26,6 C 24,6 C 44 % 0 lf 997,2 hPa 0,0 l/m 0,17 h 0,00 h 278 W/m 27,3 km/h (4 Bft) 95,64 %
12.05.2016 17:00 25,7 C 27,2 C 24,7 C 44 % 0 lf 997,2 hPa 0,0 l/m 0,43 h 0,00 h 323 W/m 26,5 km/h (4 Bft) 95,82 %
12.05.2016 18:00 25,0 C 25,4 C 23,2 C 45 % 0 lf 997,2 hPa 0,0 l/m 0,73 h 0,00 h 275 W/m 28,0 km/h (4 Bft) 95,56 %
12.05.2016 19:00 24,6 C 24,3 C 20,1 C 46 % 0 lf 997,3 hPa 0,0 l/m 0,53 h 0,00 h 144 W/m 24,3 km/h (4 Bft) 97,10 %
12.05.2016 20:00 22,9 C 22,4 C 17,4 C 51 % 0 lf 997,7 hPa 0,0 l/m 0,20 h 0,00 h 42 W/m 17,9 km/h (3 Bft) 95,24 %
12.05.2016 21:00 21,5 C 20,4 C 17,8 C 55 % 0 lf 998,3 hPa 0,0 l/m 0,00 h 0,00 h 9 W/m 16,0 km/h (3 Bft) 95,86 %
12.05.2016 22:00 20,2 C 19,0 C 16,6 C 58 % 0 lf 998,8 hPa 0,0 l/m 0,00 h 0,00 h 0 W/m 13,2 km/h (3 Bft) 96,51 %
12.05.2016 23:00 19,0 C 17,8 C 15,2 C 62 % 0 lf 999,1 hPa 0,0 l/m 0,00 h 0,00 h 0 W/m 7,8 km/h (2 Bft) 97,98 %
13.05.2016 00:00 18,0 C 16,8 C 14,9 C 65 % 0 lf 999,3 hPa 0,0 l/m 0,00 h 0,00 h 0 W/m 7,0 km/h (2 Bft) 92,21 %
13.05.2016 01:00 17,1 C 16,1 C 14,6 C 68 % 0 lf 999,5 hPa 0,0 l/m 0,00 h 0,00 h 0 W/m 8,6 km/h (2 Bft) 98,37 %
13.05.2016 02:00 16,3 C 14,9 C 13,2 C 71 % 0 lf 999,5 hPa 0,0 l/m 0,00 h 0,00 h 0 W/m 6,4 km/h (2 Bft) 97,95 %
13.05.2016 03:00 15,3 C 13,4 C 12,1 C 75 % 0 lf 999,6 hPa 0,0 l/m 0,00 h 0,00 h 0 W/m 5,4 km/h (1 Bft) 93,87 %
13.05.2016 04:00 14,0 C 12,2 C 11,1 C 79 % 0 lf 999,8 hPa 0,0 l/m 0,00 h 0,00 h 0 W/m 6,0 km/h (2 Bft) 96,01 %
13.05.2016 05:00 13,3 C 12,5 C 11,5 C 83 % 0 lf 1000,0 hPa 0,0 l/m 0,00 h 0,00 h 6 W/m 7,8 km/h (2 Bft) 98,38 %
13.05.2016 06:00 13,4 C 13,3 C 12,2 C 85 % 0 lf 1000,2 hPa 0,0 l/m 0,77 h 0,00 h 54 W/m 8,1 km/h (2 Bft) 94,11 %
13.05.2016 07:00 14,1 C 14,9 C 13,3 C 84 % 0 lf 1000,7 hPa 0,0 l/m 1,00 h 0,00 h 193 W/m 13,5 km/h (3 Bft) 97,23 %
13.05.2016 08:00 15,5 C 18,8 C 14,6 C 79 % 0 lf 1000,9 hPa 0,0 l/m 1,00 h 0,00 h 353 W/m 15,9 km/h (3 Bft) 95,94 %
13.05.2016 09:00 17,4 C 25,4 C 17,1 C 73 % 0 lf 1001,4 hPa 0,0 l/m 1,00 h 0,00 h 548 W/m 18,3 km/h (3 Bft) 95,11 %
13.05.2016 10:00 18,7 C 26,8 C 22,1 C 69 % 0 lf 1001,6 hPa 0,0 l/m 1,00 h 0,00 h 652 W/m 20,9 km/h (4 Bft) 96,81 %
13.05.2016 11:00 19,5 C 24,4 C 20,8 C 67 % 0 lf 1002,0 hPa 0,0 l/m 0,70 h 0,00 h 507 W/m 21,9 km/h (4 Bft) 95,98 %
13.05.2016 12:00 21,8 C 30,7 C 25,3 C 61 % 0 lf 1002,1 hPa 0,0 l/m 0,97 h 0,00 h 800 W/m 25,2 km/h (4 Bft) 94,68 %
13.05.2016 13:00 23,7 C 31,4 C 23,9 C 53 % 0 lf 1002,0 hPa 0,0 l/m 1,00 h 0,00 h 879 W/m 29,5 km/h (5 Bft) 97,99 %
13.05.2016 14:00 24,1 C 30,1 C 23,1 C 47 % 0 lf 1001,8 hPa 0,0 l/m 1,00 h 0,00 h 864 W/m 32,7 km/h (5 Bft) 95,00 %
13.05.2016 15:00 24,4 C 30,2 C 23,6 C 41 % 0 lf 1002,0 hPa 0,0 l/m 1,00 h 0,00 h 818 W/m 30,6 km/h (5 Bft) 95,53 %
13.05.2016 16:00 24,6 C 29,7 C 25,6 C 37 % 0 lf 1002,2 hPa 0,0 l/m 1,00 h 0,00 h 694 W/m 29,9 km/h (5 Bft) 97,14 %
13.05.2016 17:00 23,6 C 26,1 C 21,9 C 37 % 0 lf 1002,2 hPa 0,0 l/m 0,87 h 0,00 h 475 W/m 29,4 km/h (5 Bft) 95,30 %
13.05.2016 18:00 22,8 C 23,3 C 21,2 C 37 % 0 lf 1002,3 hPa 0,0 l/m 0,73 h 0,00 h 313 W/m 28,9 km/h (5 Bft) 96,72 %
13.05.2016 19:00 21,8 C 21,8 C 20,1 C 44 % 0 lf 1003,0 hPa 0,0 l/m 1,00 h 0,00 h 183 W/m 33,3 km/h (5 Bft) 95,83 %
13.05.2016 20:00 20,1 C 19,6 C 18,2 C 51 % 0 lf 1003,9 hPa 0,0 l/m 0,30 h 0,00 h 46 W/m 31,0 km/h (5 Bft) 97,22 %
13.05.2016 21:00 18,3 C 17,4 C 16,3 C 59 % 0 lf 1004,8 hPa 0,0 l/m 0,00 h 0,00 h 7 W/m 23,4 km/h (4 Bft) 95,36 %
13.05.2016 22:00 16,3 C 15,4 C 14,2 C 66 % 0 lf 1005,8 hPa 0,0 l/m 0,00 h 0,00 h 0 W/m 25,4 km/h (4 Bft) 95,52 %
13.05.2016 23:00 14,0 C 13,2 C 12,2 C 70 % 0 lf 1006,7 hPa 0,0 l/m 0,00 h 0,00 h 0 W/m 23,4 km/h (4 Bft) 97,64 %
14.05.2016 00:00 12,0 C 11,4 C 10,4 C 72 % 0 lf 1007,5 hPa 0,0 l/m 0,00 h 0,00 h 0 W/m 24,8 km/h (4 Bft) 92,56 %
14.05.2016 01:00 10,4 C 10,0 C 9,1 C 77 % 0 lf 1008,2 hPa 0,0 l/m 0,00 h 0,00 h 0 W/m 25,5 km/h (4 Bft) 93,66 %
14.05.2016 02:00 9,4 C 9,1 C 8,2 C 80 % 0 lf 1008,8 hPa 0,0 l/m 0,00 h 0,00 h 0 W/m 23,7 km/h (4 Bft) 98,36 %
14.05.2016 03:00 8,9 C 8,9 C 7,8 C 79 % 0 lf 1009,4 hPa 0,0 l/m 0,00 h 0,00 h 0 W/m 24,3 km/h (4 Bft) 97,00 %
14.05.2016 04:00 8,6 C 8,3 C 7,6 C 78 % 0 lf 1010,0 hPa 0,0 l/m 0,00 h 0,03 h 0 W/m 23,6 km/h (4 Bft) 94,07 %
14.05.2016 05:00 8,0 C 8,0 C 6,9 C 75 % 0 lf 1010,4 hPa 0,0 l/m 0,00 h 0,00 h 8 W/m 22,6 km/h (4 Bft) 96,94 %
14.05.2016 06:00 7,6 C 7,8 C 6,9 C 75 % 0 lf 1010,8 hPa 0,0 l/m 0,47 h 0,00 h 46 W/m 17,5 km/h (3 Bft) 96,29 %
14.05.2016 07:00 8,0 C 9,3 C 7,7 C 72 % 0 lf 1011,2 hPa 0,0 l/m 0,78 h 0,00 h 129 W/m 15,7 km/h (3 Bft) 96,36 %
14.05.2016 08:00 8,7 C 10,5 C 8,8 C 69 % 0 lf 1011,5 hPa 0,0 l/m 0,13 h 0,00 h 157 W/m 16,2 km/h (3 Bft) 96,16 %
14.05.2016 09:00 9,1 C 11,3 C 9,4 C 72 % 2 lf 1012,1 hPa 0,0 l/m 0,40 h 0,20 h 245 W/m 21,0 km/h (4 Bft) 94,95 %
14.05.2016 10:00 10,4 C 13,9 C 11,5 C 70 % 2 lf 1012,3 hPa 0,0 l/m 0,83 h 0,20 h 383 W/m 22,2 km/h (4 Bft) 96,01 %
14.05.2016 11:00 11,7 C 17,3 C 14,3 C 65 % 0 lf 1012,6 hPa 0,0 l/m 0,83 h 0,00 h 524 W/m 21,6 km/h (4 Bft) 98,08 %
14.05.2016 12:00 12,5 C 16,1 C 13,7 C 59 % 0 lf 1012,7 hPa 0,0 l/m 0,57 h 0,00 h 464 W/m 21,7 km/h (4 Bft) 94,23 %
14.05.2016 13:00 11,8 C 15,5 C 12,2 C 63 % 0 lf 1012,9 hPa 0,0 l/m 0,60 h 0,00 h 456 W/m 24,0 km/h (4 Bft) 96,30 %
14.05.2016 14:00 12,8 C 16,6 C 13,8 C 61 % 0 lf 1012,9 hPa 0,0 l/m 0,57 h 0,00 h 419 W/m 21,7 km/h (4 Bft) 98,79 %
14.05.2016 15:00 13,2 C 15,3 C 13,6 C 58 % 0 lf 1013,0 hPa 0,0 l/m 0,13 h 0,00 h 285 W/m 24,2 km/h (4 Bft) 93,31 %
14.05.2016 16:00 12,8 C 14,2 C 12,9 C 56 % 0 lf 1013,2 hPa 0,0 l/m 0,13 h 0,00 h 243 W/m 25,7 km/h (4 Bft) 97,58 %
14.05.2016 17:00 12,8 C 14,9 C 12,3 C 53 % 0 lf 1013,4 hPa 0,0 l/m 0,30 h 0,00 h 335 W/m 29,9 km/h (5 Bft) 96,87 %
14.05.2016 18:00 11,8 C 12,7 C 11,5 C 59 % 0 lf 1013,9 hPa 0,0 l/m 0,57 h 0,00 h 265 W/m 27,3 km/h (4 Bft) 95,80 %
14.05.2016 19:00 11,5 C 11,7 C 10,4 C 59 % 0 lf 1014,3 hPa 0,0 l/m 0,37 h 0,00 h 141 W/m 24,4 km/h (4 Bft) 95,02 %
14.05.2016 20:00 9,9 C 9,7 C 8,6 C 60 % 0 lf 1015,0 hPa 0,0 l/m 0,43 h 0,00 h 54 W/m 22,0 km/h (4 Bft) 97,01 %
14.05.2016 21:00 8,8 C 8,1 C 7,2 C 64 % 0 lf 1015,6 hPa 0,0 l/m 0,00 h 0,00 h 8 W/m 18,0 km/h (3 Bft) 96,29 %
14.05.2016 22:00 8,1 C 7,7 C 7,0 C 71 % 0 lf 1016,1 hPa 0,0 l/m 0,00 h 0,00 h 0 W/m 17,7 km/h (3 Bft) 95,97 %
14.05.2016 23:00 7,6 C 7,2 C 6,7 C 73 % 0 lf 1016,6 hPa 0,0 l/m 0,00 h 0,00 h 0 W/m 15,9 km/h (3 Bft) 96,08 %
15.05.2016 00:00 6,9 C 6,2 C 5,5 C 77 % 0 lf 1017,0 hPa 0,0 l/m 0,00 h 0,00 h 0 W/m 16,9 km/h (3 Bft) 96,07 %
15.05.2016 01:00 6,0 C 5,6 C 4,9 C 81 % 0 lf 1017,3 hPa 0,0 l/m 0,00 h 0,00 h 0 W/m 14,2 km/h (3 Bft) 97,58 %
15.05.2016 02:00 5,8 C 5,6 C 5,0 C 83 % 0 lf 1017,5 hPa 0,0 l/m 0,00 h 0,00 h 0 W/m 14,4 km/h (3 Bft) 95,80 %
15.05.2016 03:00 5,6 C 5,1 C 4,4 C 84 % 0 lf 1017,5 hPa 0,0 l/m 0,00 h 0,00 h 0 W/m 11,4 km/h (2 Bft) 93,66 %
15.05.2016 04:00 4,9 C 4,2 C 3,5 C 87 % 1 lf 1017,7 hPa 0,0 l/m 0,00 h 0,00 h 0 W/m 10,8 km/h (2 Bft) 97,73 %
15.05.2016 05:00 4,5 C 4,2 C 3,6 C 89 % 1 lf 1017,8 hPa 0,0 l/m 0,00 h 0,00 h 6 W/m 10,6 km/h (2 Bft) 96,39 %
15.05.2016 06:00 5,3 C 6,2 C 5,3 C 91 % 0 lf 1018,0 hPa 0,0 l/m 0,00 h 0,00 h 30 W/m 14,0 km/h (3 Bft) 95,88 %
15.05.2016 07:00 6,6 C 7,8 C 6,7 C 87 % 0 lf 1018,2 hPa 0,0 l/m 0,00 h 0,00 h 101 W/m 16,5 km/h (3 Bft) 96,68 %
15.05.2016 08:00 7,7 C 9,1 C 7,8 C 82 % 0 lf 1018,6 hPa 0,0 l/m 0,00 h 0,00 h 151 W/m 17,6 km/h (3 Bft) 94,23 %
15.05.2016 09:00 8,9 C 11,4 C 9,5 C 76 % 0 lf 1018,8 hPa 0,0 l/m 0,37 h 0,00 h 247 W/m 18,3 km/h (3 Bft) 97,66 %
15.05.2016 10:00 9,3 C 10,6 C 8,5 C 78 % 11 lf 1018,9 hPa 0,2 l/m 0,17 h 0,23 h 232 W/m 17,1 km/h (3 Bft) 97,42 %
15.05.2016 11:00 10,6 C 14,0 C 11,5 C 70 % 1 lf 1019,0 hPa 0,0 l/m 0,40 h 0,13 h 418 W/m 22,9 km/h (4 Bft) 94,09 %
15.05.2016 12:00 11,9 C 17,9 C 15,1 C 66 % 0 lf 1018,9 hPa 0,0 l/m 0,60 h 0,00 h 558 W/m 23,3 km/h (4 Bft) 97,08 %
15.05.2016 13:00 13,8 C 19,9 C 14,9 C 55 % 1 lf 1018,7 hPa 0,0 l/m 0,77 h 0,13 h 747 W/m 30,7 km/h (5 Bft) 97,80 %
15.05.2016 14:00 13,0 C 15,8 C 13,0 C 58 % 2 lf 1018,7 hPa 0,0 l/m 0,43 h 0,17 h 383 W/m 23,9 km/h (4 Bft) 93,49 %
15.05.2016 15:00 13,5 C 16,8 C 14,1 C 56 % 0 lf 1018,8 hPa 0,0 l/m 0,50 h 0,00 h 467 W/m 26,9 km/h (4 Bft) 97,01 %
15.05.2016 16:00 13,7 C 15,9 C 13,9 C 52 % 0 lf 1018,7 hPa 0,0 l/m 0,33 h 0,00 h 332 W/m 27,3 km/h (4 Bft) 98,87 %
15.05.2016 17:00 12,6 C 13,3 C 11,9 C 56 % 0 lf 1018,9 hPa 0,0 l/m 0,17 h 0,10 h 186 W/m 27,3 km/h (4 Bft) 93,05 %
15.05.2016 18:00 12,1 C 12,9 C 11,6 C 58 % 0 lf 1018,9 hPa 0,0 l/m 0,50 h 0,00 h 235 W/m 29,0 km/h (5 Bft) 97,58 %
15.05.2016 19:00 11,3 C 11,5 C 10,3 C 61 % 0 lf 1019,0 hPa 0,0 l/m 0,33 h 0,00 h 131 W/m 25,5 km/h (4 Bft) 96,93 %
15.05.2016 20:00 10,2 C 9,7 C 8,7 C 64 % 0 lf 1019,3 hPa 0,0 l/m 0,23 h 0,00 h 46 W/m 17,1 km/h (3 Bft) 95,73 %
15.05.2016 21:00 9,2 C 8,7 C 7,7 C 66 % 0 lf 1019,5 hPa 0,0 l/m 0,00 h 0,00 h 10 W/m 13,8 km/h (3 Bft) 94,95 %
15.05.2016 22:00 8,4 C 7,3 C 6,4 C 68 % 0 lf 1019,8 hPa 0,0 l/m 0,00 h 0,00 h 0 W/m 7,0 km/h (2 Bft) 97,09 %
15.05.2016 23:00 7,6 C 7,1 C 6,1 C 72 % 0 lf 1019,9 hPa 0,0 l/m 0,00 h 0,00 h 0 W/m 8,3 km/h (2 Bft) 94,74 %
Min-Datum _ 15.05.16 15.05.16 15.05.16 13.05.16 09.05.16 12.05.16 - - - - 09.05.16 10.05.16
_ Min-Zeit 05:18 04:24 04:24 16:36 00:00 17:30 - - - - 03:24 00:02
Minimum _ 4,4 C 3,9 C 3,3 C 35 % 0 lf 997,0 hPa - - - - 0,0 km/h (0 Bft) 9,52 %
Max-Datum _ 09.05.16 11.05.16 11.05.16 11.05.16 11.05.16 15.05.16 11.05.16 09.05.16 10.05.16 14.05.16 11.05.16 09.05.16
_ Max-Zeit 15:58 14:38 11:54 07:26 20:58 23:58 20:36 06:20 16:44 13:36 20:40 00:12
Maximum _ 27,2 C 35,6 C 31,7 C 93 % 15 lf 1020,1 hPa 0,4 l/m 0,03 h 0,03 h 1136 W/m 48,1 km/h
O-SO (6 Bft)
100,00 %
Durchschnitt _ 17,0 C 18,4 C 16,1 C 65 % 0 lf 1007,8 hPa #0,8 l/m #61:39 h #3:42 h 328 W/m 17,6 km/h (3 Bft) 96,12 %
© 2016 W. Hausmann